Time;durP1;ratioP1;P1;durP2;ratioP2;P2;SDS_P1;SDS_P2;PMS_P1;PMS_P2;Temp;Humidity;BMP_temperature;BMP_pressure;BME280_temperature;BME280_humidity;BME280_pressure;Samples;Min_cycle;Max_cycle;Signal;HPM_P1;HPM_P2
2022/06/11 06:28:46;;;;;;;4.80;1.60;;;;;;;20.30;64.83;99661.97;5108472;27;20158;-84
2022/06/11 06:31:15;;;;;;;4.30;1.95;;;;;;;20.40;64.61;99670.50;5109197;28;20055;-84
2022/06/11 06:33:42;;;;;;;4.68;2.35;;;;;;;20.82;62.86;99681.50;5107975;28;20060;-84
2022/06/11 06:36:09;;;;;;;3.30;1.63;;;;;;;20.82;63.16;99681.50;5102978;28;20059;-83
2022/06/11 06:38:38;;;;;;;2.97;1.95;;;;;;;21.07;62.65;99661.06;5107848;28;20293;-84
2022/06/11 06:41:05;;;;;;;3.63;2.00;;;;;;;21.49;62.60;99685.75;5107921;28;20071;-84
2022/06/11 06:43:32;;;;;;;4.75;2.03;;;;;;;20.94;61.79;99675.13;5107552;28;20044;-84
2022/06/11 06:46:00;;;;;;;4.13;1.88;;;;;;;21.17;60.60;99660.47;5108658;28;20404;-84
2022/06/11 06:48:27;;;;;;;1.98;1.52;;;;;;;21.67;59.09;99690.31;5108136;28;20059;-84
2022/06/11 06:50:54;;;;;;;5.20;1.95;;;;;;;22.07;58.25;99688.59;5111046;28;20495;-84
2022/06/11 06:53:21;;;;;;;3.83;2.33;;;;;;;22.02;57.64;99683.78;5111167;28;20073;-85
2022/06/11 06:55:48;;;;;;;2.95;1.63;;;;;;;22.29;58.66;99691.50;5108389;28;20126;-84
2022/06/11 06:58:15;;;;;;;4.00;1.65;;;;;;;22.39;57.78;99683.41;5108276;28;20054;-84
2022/06/11 07:00:42;;;;;;;4.45;1.70;;;;;;;22.37;56.04;99688.38;5105115;28;20134;-83
2022/06/11 07:03:11;;;;;;;4.13;1.55;;;;;;;22.59;53.99;99693.16;5099680;28;20052;-85
2022/06/11 07:05:39;;;;;;;5.70;1.77;;;;;;;22.22;54.17;99665.88;5106873;28;20059;-84
2022/06/11 07:08:06;;;;;;;5.13;2.15;;;;;;;22.58;54.13;99686.78;5108244;28;20044;-85
2022/06/11 07:10:34;;;;;;;6.43;1.60;;;;;;;22.96;52.37;99681.56;5107845;28;20048;-85
2022/06/11 07:13:00;;;;;;;3.03;1.35;;;;;;;23.17;51.30;99681.88;5106906;28;20066;-84
2022/06/11 07:15:28;;;;;;;3.63;1.67;;;;;;;23.06;50.92;99680.84;5107620;28;20402;-85
2022/06/11 07:17:57;;;;;;;3.65;1.70;;;;;;;23.03;51.53;99690.50;5104803;28;20232;-85
2022/06/11 07:20:29;;;;;;;6.55;1.70;;;;;;;22.68;50.97;99660.31;5103654;28;20044;-85
2022/06/11 07:23:00;;;;;;;4.13;1.70;;;;;;;22.82;51.98;99675.50;5095925;28;20044;-85
2022/06/11 07:25:29;;;;;;;2.97;1.73;;;;;;;22.98;53.86;99685.72;5091722;28;20135;-85
2022/06/11 07:28:00;;;;;;;4.00;1.60;;;;;;;23.03;50.98;99684.97;5101568;28;20044;-85
2022/06/11 07:30:30;;;;;;;6.70;1.70;;;;;;;23.09;51.01;99652.63;5107986;28;20056;-85
2022/06/11 07:33:08;;;;;;;6.70;1.77;;;;;;;23.51;51.62;99674.28;5117917;27;20134;-85
2022/06/11 07:35:38;;;;;;;2.72;1.58;;;;;;;23.46;48.90;99669.50;5127956;27;20085;-85
2022/06/11 07:38:06;;;;;;;6.55;1.67;;;;;;;23.24;49.79;99666.72;5107122;28;20460;-84
2022/06/11 07:40:33;;;;;;;3.88;1.80;;;;;;;23.27;50.46;99680.06;5093742;28;20052;-84
2022/06/11 07:43:00;;;;;;;4.38;1.80;;;;;;;23.21;53.63;99661.69;5093373;28;20147;-84
2022/06/11 07:45:29;;;;;;;3.40;1.42;;;;;;;23.76;52.90;99661.84;5094672;28;20043;-84
2022/06/11 07:47:56;;;;;;;4.90;1.85;;;;;;;23.70;49.43;99669.25;5104720;28;20044;-84
2022/06/11 07:50:24;;;;;;;3.10;1.52;;;;;;;23.59;50.32;99668.31;5107497;28;20550;-81
2022/06/11 07:52:52;;;;;;;1.63;1.50;;;;;;;23.97;49.17;99671.25;5115364;28;20055;-81
2022/06/11 07:55:20;;;;;;;2.35;1.58;;;;;;;24.02;49.34;99671.31;5116157;28;20569;-82
2022/06/11 07:57:47;;;;;;;5.93;1.65;;;;;;;24.03;48.50;99659.09;5115767;28;20058;-83
2022/06/11 08:00:19;;;;;;;3.72;1.63;;;;;;;24.12;48.63;99671.41;5115195;28;20058;-83
2022/06/11 08:02:46;;;;;;;3.65;1.80;;;;;;;24.61;50.00;99676.03;5108448;28;20068;-84
2022/06/11 08:05:14;;;;;;;2.83;1.52;;;;;;;24.65;51.71;99677.19;5106875;28;20127;-83
2022/06/11 08:07:41;;;;;;;5.75;1.75;;;;;;;24.17;49.97;99688.13;5113573;28;20521;-83
2022/06/11 08:10:10;;;;;;;4.25;2.33;;;;;;;24.34;51.18;99676.91;5114263;28;20138;-83
2022/06/11 08:12:36;;;;;;;2.53;1.73;;;;;;;24.37;53.69;99670.84;5113029;28;20047;-83
2022/06/11 08:15:04;;;;;;;3.67;1.60;;;;;;;24.54;50.58;99673.47;5099573;28;20048;-83
2022/06/11 08:17:35;;;;;;;3.17;1.60;;;;;;;24.59;53.47;99674.66;5110768;28;20044;-83
2022/06/11 08:20:05;;;;;;;2.08;1.52;;;;;;;24.58;53.44;99671.03;5113373;28;20059;-84
2022/06/11 08:22:31;;;;;;;3.85;1.35;;;;;;;24.95;50.71;99674.94;5109703;28;20101;-84
2022/06/11 08:24:58;;;;;;;3.75;1.42;;;;;;;25.02;49.54;99681.94;5114719;28;20043;-83
2022/06/11 08:27:27;;;;;;;2.88;1.40;;;;;;;24.77;46.64;99668.69;5116687;28;20044;-84
2022/06/11 08:29:54;;;;;;;3.45;1.65;;;;;;;24.88;49.04;99680.69;5117644;28;20052;-84
2022/06/11 08:32:21;;;;;;;4.00;1.60;;;;;;;25.09;47.91;99673.34;5118053;28;20067;-84
2022/06/11 08:34:47;;;;;;;4.45;1.67;;;;;;;25.10;47.44;99675.03;5102932;28;20551;-84
2022/06/11 08:37:15;;;;;;;5.15;1.60;;;;;;;24.87;47.48;99670.69;5111460;28;20042;-84
2022/06/11 08:39:42;;;;;;;9.05;2.00;;;;;;;25.02;47.92;99668.03;5118119;28;20040;-84
2022/06/11 08:42:33;;;;;;;4.50;1.58;;;;;;;24.42;49.14;99674.72;5118444;28;20051;-84
2022/06/11 08:45:09;;;;;;;4.03;1.45;;;;;;;24.51;47.25;99673.16;5111677;28;20040;-84
2022/06/11 08:47:42;;;;;;;5.00;1.20;;;;;;;24.84;47.51;99671.22;5114736;28;20134;-84
2022/06/11 08:50:15;;;;;;;2.53;1.40;;;;;;;25.05;45.80;99674.97;5116430;28;20056;-84
2022/06/11 08:52:44;;;;;;;2.78;1.30;;;;;;;25.08;44.12;99639.13;5117500;28;20050;-85
2022/06/11 08:55:11;;;;;;;5.70;1.30;;;;;;;24.99;43.84;99676.91;5106356;28;20044;-83
2022/06/11 08:57:50;;;;;;;3.22;1.20;;;;;;;24.80;42.83;99670.09;5115499;28;20055;-84
2022/06/11 09:00:21;;;;;;;3.65;1.30;;;;;;;24.48;44.05;99665.34;5118207;28;20059;-83
2022/06/11 09:03:08;;;;;;;3.58;1.30;;;;;;;25.09;46.75;99651.09;5098306;28;20148;-84
2022/06/11 09:06:08;;;;;;;6.10;1.45;;;;;;;25.29;41.69;99669.00;5109523;28;20051;-84
2022/06/11 09:08:52;;;;;;;4.13;1.20;;;;;;;25.46;42.80;99660.47;5102146;27;20047;-84
2022/06/11 09:11:34;;;;;;;2.50;1.02;;;;;;;25.09;43.78;99660.25;5115737;28;20050;-83
2022/06/11 09:14:36;;;;;;;4.32;1.80;;;;;;;25.06;44.71;99658.00;5115876;28;20044;-83
2022/06/11 09:17:39;;;;;;;5.38;1.75;;;;;;;25.53;42.52;99636.03;5112587;28;20047;-83
2022/06/11 09:20:18;;;;;;;2.83;1.20;;;;;;;25.25;43.48;99646.44;5084480;28;20055;-84
2022/06/11 09:23:25;;;;;;;2.45;1.33;;;;;;;25.50;42.82;99653.25;5112973;28;20039;-84
2022/06/11 09:26:07;;;;;;;8.13;1.30;;;;;;;25.70;41.28;99655.28;5110555;28;20067;-84
2022/06/11 09:28:40;;;;;;;1.73;1.17;;;;;;;25.93;40.58;99651.19;5112631;28;20062;-83
2022/06/11 09:31:13;;;;;;;5.97;1.58;;;;;;;26.11;41.04;99644.28;5108010;28;20135;-84
2022/06/11 09:33:48;;;;;;;2.72;1.13;;;;;;;25.91;37.53;99648.69;5105684;28;20055;-86
2022/06/11 09:36:27;;;;;;;2.65;1.33;;;;;;;25.63;41.61;99649.97;5112687;28;20044;-84
2022/06/11 09:39:22;;;;;;;4.22;1.13;;;;;;;25.56;40.03;99630.75;5127016;28;20067;-83
2022/06/11 09:42:25;;;;;;;4.38;1.27;;;;;;;25.91;40.43;99639.47;5128001;28;20044;-83
2022/06/11 09:44:59;;;;;;;2.40;1.00;;;;;;;25.87;40.52;99638.38;5118935;28;20130;-84
2022/06/11 09:47:33;;;;;;;5.03;1.27;;;;;;;26.12;39.54;99648.72;5108720;28;20036;-82
2022/06/11 09:50:08;;;;;;;4.75;1.38;;;;;;;26.26;41.11;99649.88;5117407;28;20052;-83
2022/06/11 09:52:42;;;;;;;3.47;1.17;;;;;;;26.66;40.16;99642.66;5111690;28;20060;-84
2022/06/11 09:55:22;;;;;;;2.40;1.20;;;;;;;26.92;38.52;99647.34;5105694;28;20048;-83
2022/06/11 09:58:05;;;;;;;5.60;1.35;;;;;;;26.65;38.83;99635.38;5092940;28;20055;-83
2022/06/11 10:00:35;;;;;;;5.13;1.60;;;;;;;26.45;38.42;99644.59;5095875;28;20131;-84
2022/06/11 10:03:16;;;;;;;10.20;1.40;;;;;;;26.66;39.51;99630.63;5098851;28;20094;-84
2022/06/11 10:05:48;;;;;;;2.75;1.25;;;;;;;26.52;40.40;99633.16;5105097;28;20056;-84
2022/06/11 10:08:22;;;;;;;3.42;1.75;;;;;;;27.20;40.33;99638.38;5094218;28;20506;-84
2022/06/11 10:10:51;;;;;;;4.03;1.23;;;;;;;26.72;38.87;99615.59;5090984;28;20048;-83
2022/06/11 10:13:29;;;;;;;5.50;1.53;;;;;;;26.77;38.75;99620.34;5093042;28;20482;-83
2022/06/11 10:15:56;;;;;;;7.25;1.40;;;;;;;26.23;40.21;99657.97;5110470;28;20047;-83
2022/06/11 10:18:30;;;;;;;5.55;1.70;;;;;;;26.27;41.35;99643.19;5111420;28;20053;-85
2022/06/11 10:21:04;;;;;;;5.97;3.05;;;;;;;26.34;40.24;99637.34;5107642;28;20151;-84
2022/06/11 10:23:38;;;;;;;7.30;2.00;;;;;;;26.61;40.39;99644.59;5110456;28;20044;-85
2022/06/11 10:26:10;;;;;;;3.67;1.20;;;;;;;25.87;41.49;99635.56;5103668;28;20044;-84
2022/06/11 10:28:40;;;;;;;3.63;1.38;;;;;;;26.06;40.88;99652.63;5098429;28;20051;-83
2022/06/11 10:31:11;;;;;;;8.65;1.45;;;;;;;25.69;41.90;99634.97;5098932;28;20414;-82
2022/06/11 10:33:48;;;;;;;9.50;1.48;;;;;;;26.03;40.23;99636.47;5101647;28;20047;-83
2022/06/11 10:36:21;;;;;;;6.95;1.65;;;;;;;26.34;40.45;99656.03;5110015;28;20494;-83
2022/06/11 10:38:54;;;;;;;4.07;1.00;;;;;;;26.83;41.54;99653.53;5110286;28;20522;-83
2022/06/11 10:41:27;;;;;;;1.98;1.02;;;;;;;27.09;40.09;99642.31;5111014;28;20398;-85
2022/06/11 10:44:06;;;;;;;3.45;1.77;;;;;;;26.53;37.52;99653.50;5104650;28;20048;-83
2022/06/11 10:46:37;;;;;;;3.27;1.27;;;;;;;26.24;38.61;99648.47;5093235;28;20138;-82
2022/06/11 10:49:11;;;;;;;1.95;1.17;;;;;;;25.78;39.29;99635.28;5108106;28;20414;-85
2022/06/11 10:51:40;;;;;;;2.58;0.95;;;;;;;25.76;40.74;99618.84;5110092;28;20297;-84
2022/06/11 10:54:13;;;;;;;5.65;1.52;;;;;;;25.99;39.21;99613.91;5107711;28;20050;-83
2022/06/11 10:56:46;;;;;;;5.85;1.17;;;;;;;26.38;37.08;99638.47;5109187;28;20058;-83
2022/06/11 10:59:20;;;;;;;4.93;1.40;;;;;;;26.72;38.29;99635.09;5089828;28;20062;-85
2022/06/11 11:01:51;;;;;;;5.13;1.65;;;;;;;26.91;36.74;99642.91;5102267;28;20213;-83
2022/06/11 11:04:37;;;;;;;3.67;1.33;;;;;;;26.42;35.66;99647.09;5108976;28;20131;-83
2022/06/11 11:07:10;;;;;;;3.45;1.20;;;;;;;26.34;36.75;99625.34;5090080;28;20060;-83
2022/06/11 11:09:37;;;;;;;2.20;1.20;;;;;;;26.65;36.18;99624.22;5089411;28;20051;-83
2022/06/11 11:12:07;;;;;;;6.75;1.90;;;;;;;27.03;36.11;99629.50;5098483;28;20487;-83
2022/06/11 11:14:38;;;;;;;8.15;1.58;;;;;;;26.99;35.35;99601.34;5112981;28;20062;-85
2022/06/11 11:17:07;;;;;;;4.30;1.60;;;;;;;27.38;35.48;99624.94;5113980;28;20138;-83
2022/06/11 11:19:41;;;;;;;4.65;1.20;;;;;;;26.81;36.38;99590.75;5107620;28;20114;-84
2022/06/11 11:22:15;;;;;;;9.70;3.47;;;;;;;26.70;36.55;99619.81;5106490;28;20505;-84
2022/06/11 11:24:45;;;;;;;4.47;1.45;;;;;;;26.80;35.46;99608.63;5104718;28;20407;-83
2022/06/11 11:27:18;;;;;;;5.05;2.13;;;;;;;26.93;35.74;99604.41;5093340;28;20055;-84
2022/06/11 11:29:51;;;;;;;6.03;1.30;;;;;;;27.07;34.74;99588.75;5113315;28;20478;-84
2022/06/11 11:32:40;;;;;;;6.22;2.97;;;;;;;27.65;35.67;99613.34;5112806;28;20509;-84
2022/06/11 11:35:20;;;;;;;4.63;1.50;;;;;;;27.42;35.10;99597.31;5114704;28;20055;-84
2022/06/11 11:37:57;;;;;;;6.85;1.15;;;;;;;27.86;34.53;99588.94;5111321;28;20050;-84
2022/06/11 11:40:26;;;;;;;4.45;1.15;;;;;;;28.00;33.88;99593.91;5103186;28;20471;-84
2022/06/11 11:42:56;;;;;;;1.85;1.15;;;;;;;28.04;34.84;99595.00;5093251;28;20079;-84
2022/06/11 11:45:25;;;;;;;5.18;1.10;;;;;;;28.04;33.57;99597.78;5092911;28;20061;-85
2022/06/11 11:47:55;;;;;;;3.63;1.20;;;;;;;28.04;34.54;99600.59;5101729;28;20040;-84
2022/06/11 11:50:29;;;;;;;4.25;1.42;;;;;;;28.03;36.24;99598.91;5105563;28;20538;-84
2022/06/11 11:53:03;;;;;;;3.28;1.20;;;;;;;28.04;33.57;99579.06;5103530;28;20044;-84
2022/06/11 11:55:33;;;;;;;5.22;1.30;;;;;;;28.22;34.62;99566.34;5101140;28;20063;-85
2022/06/11 11:58:03;;;;;;;3.60;1.23;;;;;;;27.96;34.19;99562.03;5093159;28;20043;-86
2022/06/11 12:00:33;;;;;;;2.40;0.95;;;;;;;28.06;34.58;99573.19;5113962;28;20043;-84
2022/06/11 12:03:05;;;;;;;4.55;1.08;;;;;;;28.16;34.79;99569.47;5110973;28;20077;-85
2022/06/11 12:05:38;;;;;;;3.20;1.05;;;;;;;28.41;34.05;99580.44;5104465;28;20426;-83
2022/06/11 12:08:13;;;;;;;3.17;1.20;;;;;;;28.56;32.97;99581.41;5112935;28;20078;-83
2022/06/11 12:10:48;;;;;;;3.30;1.10;;;;;;;28.42;32.60;99575.66;5113993;28;20048;-81
2022/06/11 12:13:23;;;;;;;3.80;0.90;;;;;;;28.17;33.15;99559.94;5107170;28;20059;-84
2022/06/11 12:15:53;;;;;;;4.95;1.10;;;;;;;28.23;33.47;99570.81;5108738;28;20055;-85
2022/06/11 12:18:21;;;;;;;;;;;;;;;28.34;33.26;99565.13;5099075;28;20128;-85
2022/06/11 12:20:53;;;;;;;5.85;1.58;;;;;;;28.22;33.24;99579.50;5113908;28;19926;-85
2022/06/11 12:23:31;;;;;;;2.58;1.00;;;;;;;28.33;34.01;99563.47;5112951;28;20059;-85
2022/06/11 12:26:03;;;;;;;2.70;1.17;;;;;;;28.29;33.99;99557.63;5112036;28;20062;-85
2022/06/11 12:28:34;;;;;;;3.45;1.20;;;;;;;28.36;33.33;99557.28;5104833;28;20065;-84
2022/06/11 12:31:00;;;;;;;4.10;1.40;;;;;;;28.56;33.01;99564.63;5113231;27;20046;-84
2022/06/11 12:33:28;;;;;;;3.30;1.20;;;;;;;28.91;32.38;99546.66;5112432;28;20079;-85
2022/06/11 12:36:03;;;;;;;2.83;1.33;;;;;;;29.52;33.58;99571.41;5107367;28;20131;-85
2022/06/11 12:38:39;;;;;;;4.63;1.20;;;;;;;29.46;32.96;99560.28;5105667;28;20051;-85
2022/06/11 12:41:24;;;;;;;3.90;1.33;;;;;;;29.40;32.75;99543.84;5098814;28;20086;-84
2022/06/11 12:43:57;;;;;;;5.45;1.30;;;;;;;29.32;31.56;99558.53;5108102;28;20406;-85
2022/06/11 12:46:31;;;;;;;6.68;1.15;;;;;;;29.82;33.09;99567.34;5112703;28;20039;-85
2022/06/11 12:49:12;;;;;;;3.85;1.17;;;;;;;29.38;31.04;99565.72;5102868;28;20048;-84
2022/06/11 12:52:06;;;;;;;4.82;1.25;;;;;;;29.04;32.12;99556.31;5112212;28;20051;-85
2022/06/11 12:54:49;;;;;;;4.07;1.13;;;;;;;29.00;32.25;99552.44;5110400;28;20039;-84
2022/06/11 12:57:32;;;;;;;9.32;1.10;;;;;;;28.72;32.79;99551.34;5101003;28;20135;-86
2022/06/11 13:00:11;;;;;;;6.53;1.20;;;;;;;29.30;36.04;99551.25;5092942;28;20406;-85
2022/06/11 13:02:53;;;;;;;5.00;1.20;;;;;;;28.93;33.73;99532.38;5096119;28;20557;-85
2022/06/11 13:05:55;;;;;;;2.78;1.25;;;;;;;29.80;34.94;99555.59;5112177;28;20300;-85
2022/06/11 13:08:45;;;;;;;4.35;1.00;;;;;;;29.08;33.10;99556.53;5111896;28;20047;-85
2022/06/11 13:11:20;;;;;;;5.20;1.20;;;;;;;29.56;34.14;99536.06;5106719;28;20036;-84
2022/06/11 13:14:19;;;;;;;5.38;1.27;;;;;;;29.24;31.76;99566.44;5109762;28;20138;-85
2022/06/11 13:16:56;;;;;;;9.55;1.67;;;;;;;29.30;32.16;99554.06;5110796;28;20067;-84
2022/06/11 13:19:37;;;;;;;3.17;1.40;;;;;;;29.18;32.47;99539.63;5104345;28;20075;-85
2022/06/11 13:22:12;;;;;;;6.65;1.33;;;;;;;29.10;32.77;99557.06;5112727;28;20039;-84
2022/06/11 13:24:50;;;;;;;4.22;1.35;;;;;;;29.12;32.74;99563.22;5102221;28;20051;-85
2022/06/11 13:27:35;;;;;;;9.90;2.03;;;;;;;28.98;32.25;99523.94;5097995;28;20082;-85
2022/06/11 13:30:14;;;;;;;4.47;1.15;;;;;;;29.20;31.65;99536.53;5114596;28;20071;-86
2022/06/11 13:32:53;;;;;;;4.18;1.30;;;;;;;29.31;32.46;99535.28;5101938;28;20112;-86
2022/06/11 13:35:39;;;;;;;2.97;1.40;;;;;;;29.51;32.84;99538.94;5108653;27;20112;-86
2022/06/11 13:38:33;;;;;;;;;;;;;;;;;;;;;
2022/06/11 13:41:14;;;;;;;2.70;1.02;;;;;;;29.34;31.97;99533.84;5124405;28;20047;-85
2022/06/11 13:43:57;;;;;;;3.50;1.02;;;;;;;29.19;32.72;99526.44;5111701;28;20486;-84
2022/06/11 13:46:43;;;;;;;2.00;0.85;;;;;;;29.03;32.88;99539.81;5099697;28;20048;-85
2022/06/11 13:49:28;;;;;;;4.03;1.30;;;;;;;28.24;34.46;99524.97;5117452;28;20040;-86
2022/06/11 13:52:05;;;;;;;2.97;1.23;;;;;;;27.96;33.98;99542.47;5115250;28;20051;-87
2022/06/11 13:58:01;;;;;;;5.72;1.40;;;;;;;28.64;34.07;99538.84;5104448;28;20112;-82
2022/06/11 14:00:47;;;;;;;3.95;1.33;;;;;;;28.31;35.70;99519.03;5100634;28;20044;-81
2022/06/11 14:03:52;;;;;;;3.05;1.10;;;;;;;28.82;34.11;99508.47;5106314;28;20066;-82
2022/06/11 14:06:23;;;;;;;5.22;1.42;;;;;;;29.39;34.64;99509.41;5099166;28;20074;-82
2022/06/11 14:12:03;;;;;;;6.85;1.30;;;;;;;30.02;33.80;99496.16;5095859;28;20054;-82
2022/06/11 14:14:41;;;;;;;3.65;1.30;;;;;;;29.86;33.81;99514.34;5113070;28;20044;-83
2022/06/11 14:17:44;;;;;;;4.22;1.15;;;;;;;29.43;34.46;99518.88;5109429;28;20103;-84
2022/06/11 14:20:20;;;;;;;3.60;1.48;;;;;;;29.21;34.79;99513.88;5110580;28;20073;-85
2022/06/11 14:22:50;;;;;;;4.70;1.10;;;;;;;29.18;34.51;99494.84;5113092;28;20221;-84
2022/06/11 14:25:41;;;;;;;5.68;1.17;;;;;;;29.58;33.00;99515.00;5118271;28;20130;-84
2022/06/11 14:28:40;;;;;;;5.15;1.30;;;;;;;29.58;32.53;99517.81;5118540;28;20055;-83
2022/06/11 14:31:11;;;;;;;6.47;1.33;;;;;;;29.58;32.74;99514.19;5116830;28;20069;-84
2022/06/11 14:33:47;;;;;;;2.95;1.33;;;;;;;29.65;32.36;99481.03;5117043;28;20054;-82
2022/06/11 14:36:28;;;;;;;3.80;1.50;;;;;;;29.59;32.70;99513.88;5116670;28;20067;-84
2022/06/11 14:38:57;;;;;;;3.67;1.10;;;;;;;29.14;33.95;99488.16;5116551;28;20555;-82
2022/06/11 14:41:49;;;;;;;2.50;1.08;;;;;;;28.75;35.78;99494.81;5115204;28;20040;-82
2022/06/11 14:44:28;;;;;;;1.55;1.13;;;;;;;28.98;34.42;99498.75;5122271;28;20051;-82
2022/06/11 14:47:04;;;;;;;6.25;1.88;;;;;;;29.26;34.01;99499.78;5122205;28;20376;-82
2022/06/11 14:49:57;;;;;;;2.20;0.98;;;;;;;29.31;32.85;99515.69;5117434;28;20071;-82
2022/06/11 14:52:49;;;;;;;4.40;1.20;;;;;;;29.69;32.70;99490.50;5120864;28;20055;-82
2022/06/11 14:55:25;;;;;;;2.95;2.05;;;;;;;29.35;33.50;99504.72;5118450;27;20052;-83
2022/06/11 14:58:14;;;;;;;3.72;1.20;;;;;;;29.64;32.79;99496.16;5123169;27;20052;-83
2022/06/11 15:01:02;;;;;;;2.67;1.25;;;;;;;29.10;32.83;99501.09;5132143;28;20105;-82
2022/06/11 15:04:18;;;;;;;4.80;0.98;;;;;;;28.96;33.22;99498.19;5126118;28;20096;-81
2022/06/11 15:07:12;;;;;;;3.40;1.10;;;;;;;29.05;32.65;99507.59;5111377;28;20071;-82
2022/06/11 15:10:05;;;;;;;4.72;1.35;;;;;;;29.02;32.35;99476.59;5130396;28;20048;-82
2022/06/11 15:13:02;;;;;;;3.17;1.08;;;;;;;29.35;32.98;99496.31;5131247;28;20074;-82
2022/06/11 15:15:42;;;;;;;3.50;1.30;;;;;;;29.25;33.77;99481.34;5124231;28;20108;-84
2022/06/11 15:18:18;;;;;;;3.75;1.50;;;;;;;29.39;34.07;99487.00;5099099;28;20055;-83
2022/06/11 15:20:50;;;;;;;3.88;1.05;;;;;;;29.37;33.91;99499.66;5109146;28;20127;-83
2022/06/11 15:23:22;;;;;;;2.88;1.20;;;;;;;29.34;33.48;99498.28;5115061;28;20130;-83
2022/06/11 15:25:52;;;;;;;2.60;1.00;;;;;;;29.31;33.00;99498.88;5101616;28;20052;-83
2022/06/11 15:28:19;;;;;;;2.03;0.90;;;;;;;29.43;32.95;99479.69;5100320;28;20047;-83
2022/06/11 15:30:46;;;;;;;3.70;1.10;;;;;;;29.82;32.79;99484.16;5116992;28;20046;-83
2022/06/11 15:33:25;;;;;;;4.03;1.33;;;;;;;29.66;32.97;99468.69;5114855;28;20100;-83
2022/06/11 15:36:04;;;;;;;2.78;0.95;;;;;;;29.98;33.16;99490.31;5116353;28;20062;-85
2022/06/11 15:38:36;;;;;;;2.38;1.25;;;;;;;30.15;32.09;99474.88;5097613;28;20048;-90
2022/06/11 15:41:07;;;;;;;5.85;1.30;;;;;;;29.92;31.85;99471.91;5096863;28;20093;-89
2022/06/11 15:43:38;;;;;;;2.38;1.00;;;;;;;29.92;32.17;99479.50;5096793;28;20054;-89
2022/06/11 15:46:21;;;;;;;2.05;1.00;;;;;;;29.90;32.72;99448.97;5096812;28;20082;-87
2022/06/11 15:48:48;;;;;;;4.68;1.27;;;;;;;29.76;33.23;99462.91;5113338;28;20052;-88
2022/06/11 15:51:21;;;;;;;4.43;1.38;;;;;;;29.79;34.04;99478.28;5107550;28;20055;-88
2022/06/11 15:56:56;;;;;;;3.13;1.25;;;;;;;29.75;34.20;99477.22;5103245;28;20065;-88
2022/06/11 15:59:25;;;;;;;5.80;1.23;;;;;;;29.96;33.89;99477.72;5126669;28;20574;-87
2022/06/11 16:01:54;;;;;;;3.38;1.63;;;;;;;29.85;33.46;99465.88;5129471;28;20436;-87
2022/06/11 16:04:25;;;;;;;5.25;2.38;;;;;;;29.35;34.50;99463.53;5126182;28;20047;-88
2022/06/11 16:07:00;;;;;;;4.82;1.50;;;;;;;29.24;34.55;99446.06;5108220;28;20105;-90
2022/06/11 16:09:31;;;;;;;9.98;1.30;;;;;;;28.70;34.04;99476.13;5108612;28;20097;-89
2022/06/11 16:12:03;;;;;;;2.78;1.10;;;;;;;28.66;34.91;99471.44;5116494;27;20052;-89
2022/06/11 16:14:36;;;;;;;2.63;1.23;;;;;;;28.76;34.49;99454.53;5117588;28;20100;-89
2022/06/11 16:17:07;;;;;;;3.88;1.00;;;;;;;28.77;33.95;99453.38;5116784;28;20062;-89
2022/06/11 16:19:35;;;;;;;2.15;0.90;;;;;;;28.91;34.39;99475.88;5116910;28;20047;-87
2022/06/11 16:22:07;;;;;;;3.17;1.13;;;;;;;28.62;34.67;99464.75;5115613;28;20060;-86
2022/06/11 16:24:38;;;;;;;3.85;1.10;;;;;;;28.25;35.45;99448.34;5109322;28;20108;-88
2022/06/11 16:27:08;;;;;;;6.20;1.20;;;;;;;28.58;35.45;99456.94;5105178;28;20044;-89
2022/06/11 16:29:43;;;;;;;2.85;1.10;;;;;;;28.80;35.12;99464.00;5107341;28;20052;-88
2022/06/11 16:32:10;;;;;;;4.10;1.00;;;;;;;28.69;35.91;99480.06;5116165;28;20055;-88
2022/06/11 16:34:37;;;;;;;4.03;1.30;;;;;;;28.88;36.09;99476.50;5106001;28;20575;-88
2022/06/11 16:37:18;;;;;;;2.05;1.10;;;;;;;28.67;35.36;99453.53;5095612;28;20047;-88
2022/06/11 16:39:45;;;;;;;3.78;1.00;;;;;;;29.00;34.94;99479.69;5095613;28;20139;-88
2022/06/11 16:44:59;;;;;;;3.30;1.35;;;;;;;28.49;35.75;99483.91;5115293;28;20121;-88
2022/06/11 16:47:28;;;;;;;3.00;1.30;;;;;;;28.28;36.02;99458.13;5104383;28;20056;-87
2022/06/11 16:58:34;;;;;;;5.75;1.45;;;;;;;28.41;35.56;99470.56;5104659;28;20564;-87
2022/06/11 17:01:07;;;;;;;3.72;1.63;;;;;;;28.15;35.87;99469.97;5109972;28;20074;-91
2022/06/11 17:03:49;;;;;;;3.85;1.60;;;;;;;28.39;36.11;99456.03;5114462;27;20054;-89
2022/06/11 17:06:35;;;;;;;3.83;1.35;;;;;;;28.39;35.43;99472.81;5115348;27;20047;-87
2022/06/11 17:09:07;;;;;;;6.53;1.10;;;;;;;28.29;34.68;99453.34;5098544;28;20075;-88
2022/06/11 17:11:34;;;;;;;4.60;0.95;;;;;;;28.32;35.34;99464.78;5093468;28;20159;-86
2022/06/11 17:14:05;;;;;;;5.07;1.85;;;;;;;27.83;36.07;99466.59;5093764;28;20096;-89
2022/06/11 17:16:34;;;;;;;3.38;1.10;;;;;;;27.84;36.08;99454.31;5098735;28;20526;-86
2022/06/11 17:19:05;;;;;;;1.23;0.95;;;;;;;27.59;36.00;99451.72;5114306;28;20075;-87
2022/06/11 17:21:34;;;;;;;4.07;1.20;;;;;;;27.59;36.09;99446.97;5115115;28;20049;-87
2022/06/11 17:24:06;;;;;;;4.55;1.48;;;;;;;27.72;36.66;99473.41;5112784;28;20130;-87
2022/06/11 17:26:42;;;;;;;3.17;1.30;;;;;;;27.50;37.04;99463.50;5114528;27;20158;-87
2022/06/11 17:29:19;;;;;;;4.78;2.03;;;;;;;27.37;36.42;99455.81;5096320;28;20056;-88
2022/06/11 17:31:49;;;;;;;2.75;1.38;;;;;;;27.55;36.86;99483.03;5094338;28;20069;-88
2022/06/11 17:34:16;;;;;;;2.17;0.80;;;;;;;27.45;37.03;99460.75;5111609;28;20086;-88
2022/06/11 17:36:46;;;;;;;2.33;1.20;;;;;;;26.98;38.22;99448.19;5114761;28;20044;-85
2022/06/11 17:39:16;;;;;;;;;;;;;;;26.96;39.11;99479.16;5114908;28;20093;-87
2022/06/11 17:41:46;;;;;;;4.70;1.60;;;;;;;27.12;38.71;99463.16;5114322;28;20018;-87
2022/06/11 17:44:21;;;;;;;3.10;1.08;;;;;;;26.95;36.78;99471.91;5103635;28;20132;-87
2022/06/11 17:46:48;;;;;;;3.20;1.08;;;;;;;26.90;37.91;99459.94;5094238;28;20048;-87
2022/06/11 17:49:15;;;;;;;3.00;1.38;;;;;;;26.99;37.32;99461.00;5106260;28;20047;-85
2022/06/11 17:51:45;;;;;;;2.63;1.23;;;;;;;26.79;37.41;99440.44;5109111;28;20131;-86
2022/06/11 17:54:20;;;;;;;3.33;0.93;;;;;;;26.69;37.78;99451.63;5113875;28;20040;-87
2022/06/11 17:56:47;;;;;;;5.28;1.77;;;;;;;26.82;37.06;99464.97;5114132;28;20479;-86
2022/06/11 17:59:15;;;;;;;5.90;1.25;;;;;;;26.72;36.94;99462.22;5113996;28;20075;-86
2022/06/11 18:01:42;;;;;;;4.47;1.40;;;;;;;26.62;37.69;99467.81;5114177;28;20039;-86
2022/06/11 18:04:18;;;;;;;3.03;1.20;;;;;;;26.61;37.68;99464.19;5100195;28;20451;-86
2022/06/11 18:06:45;;;;;;;4.82;1.58;;;;;;;26.52;37.75;99459.50;5093511;28;20050;-85
2022/06/11 18:09:11;;;;;;;1.67;1.00;;;;;;;26.50;38.36;99468.97;5112259;28;20052;-87
2022/06/11 18:11:39;;;;;;;1.23;0.90;;;;;;;26.32;38.96;99459.25;5093708;28;20040;-87
2022/06/11 18:14:06;;;;;;;4.97;1.30;;;;;;;26.23;38.71;99460.94;5093491;28;20051;-87
2022/06/11 18:16:33;;;;;;;4.32;1.23;;;;;;;26.25;40.43;99472.63;5093619;28;20094;-87
2022/06/11 18:19:00;;;;;;;2.60;1.08;;;;;;;26.14;41.87;99449.53;5093823;28;20047;-87
2022/06/11 18:27:02;;;;;;;3.50;1.05;;;;;;;25.83;44.92;99464.56;5110843;28;20061;-87
2022/06/11 18:29:29;;;;;;;4.68;1.00;;;;;;;25.88;45.08;99479.34;5109479;28;20826;-87
2022/06/11 18:31:56;;;;;;;4.88;1.25;;;;;;;25.79;46.09;99489.38;5113739;28;20067;-87
2022/06/11 18:34:23;;;;;;;2.45;1.17;;;;;;;25.51;47.27;99455.38;5113977;28;20054;-87
2022/06/11 18:36:49;;;;;;;5.95;1.30;;;;;;;25.42;48.60;99470.94;5113799;28;20075;-87
2022/06/11 18:39:16;;;;;;;1.65;0.85;;;;;;;25.39;49.00;99493.78;5108057;28;20101;-87
2022/06/11 18:41:43;;;;;;;2.88;1.20;;;;;;;25.28;48.64;99481.75;5111481;28;20051;-88
2022/06/11 18:44:12;;;;;;;5.38;1.00;;;;;;;25.09;50.79;99475.84;5098806;28;20416;-87
2022/06/11 18:46:39;;;;;;;2.60;1.13;;;;;;;25.04;51.44;99484.19;5093463;28;20059;-88
2022/06/11 18:49:06;;;;;;;3.08;1.30;;;;;;;24.90;52.92;99492.19;5093610;28;20067;-88
2022/06/11 18:51:34;;;;;;;3.80;1.55;;;;;;;24.56;52.68;99450.88;5093177;28;20056;-86
2022/06/11 18:54:01;;;;;;;2.92;1.27;;;;;;;24.51;54.23;99460.03;5092518;28;20058;-87
2022/06/11 18:56:28;;;;;;;2.78;1.30;;;;;;;24.54;55.52;99495.59;5093303;28;20079;-87
2022/06/11 18:58:56;;;;;;;5.00;1.20;;;;;;;24.41;57.75;99489.69;5105624;28;20136;-87
2022/06/11 19:01:24;;;;;;;4.82;1.40;;;;;;;24.08;59.71;99475.03;5093309;28;20128;-84